createdAt,value
2017-10-08T00:01:02.709Z,5.50
2017-10-08T00:03:30.268Z,4.93
2017-10-08T00:05:57.860Z,3.30
2017-10-08T00:08:25.344Z,3.90
2017-10-08T00:10:52.870Z,4.30
2017-10-08T00:13:20.361Z,3.83
2017-10-08T00:15:47.858Z,5.93
2017-10-08T00:18:15.431Z,3.97
2017-10-08T00:20:43.311Z,3.97
2017-10-08T00:23:10.836Z,5.00
2017-10-08T00:25:38.731Z,5.10
2017-10-08T00:28:06.614Z,5.50
2017-10-08T00:30:34.128Z,5.57
2017-10-08T00:33:01.635Z,5.30
2017-10-08T00:35:29.928Z,6.13
2017-10-08T00:37:58.179Z,5.13
2017-10-08T00:40:26.116Z,5.90
2017-10-08T00:42:54.001Z,4.97
2017-10-08T00:45:21.543Z,5.67
2017-10-08T00:47:49.063Z,5.53
2017-10-08T00:50:16.553Z,5.80
2017-10-08T00:52:44.088Z,5.47
2017-10-08T00:55:11.587Z,6.00
2017-10-08T00:57:39.937Z,4.40
2017-10-08T01:00:07.475Z,3.60
2017-10-08T01:02:34.992Z,4.90
2017-10-08T01:05:02.532Z,4.83
2017-10-08T01:07:30.056Z,3.67
2017-10-08T01:09:57.709Z,4.97
2017-10-08T01:12:26.332Z,3.30
2017-10-08T01:14:54.215Z,3.30
2017-10-08T01:17:21.740Z,2.90
2017-10-08T01:19:49.748Z,4.23
2017-10-08T01:22:17.240Z,3.97
2017-10-08T01:24:45.531Z,3.07
2017-10-08T01:27:13.782Z,4.33
2017-10-08T01:29:41.303Z,3.57
2017-10-08T01:32:08.823Z,2.70
2017-10-08T01:34:37.132Z,3.67
2017-10-08T01:37:04.691Z,4.30
2017-10-08T01:39:32.190Z,3.60
2017-10-08T01:41:59.726Z,6.63
2017-10-08T01:44:27.261Z,3.53
2017-10-08T01:46:55.192Z,2.80
2017-10-08T01:49:23.530Z,3.60
2017-10-08T01:51:51.041Z,4.60
2017-10-08T01:54:18.552Z,3.40
2017-10-08T01:56:46.084Z,3.47
2017-10-08T01:59:13.627Z,3.70
2017-10-08T02:01:41.121Z,4.03
2017-10-08T02:04:08.661Z,4.43
2017-10-08T02:06:36.176Z,3.23
2017-10-08T02:09:04.465Z,4.83
2017-10-08T02:11:31.987Z,4.27
2017-10-08T02:14:00.048Z,4.93
2017-10-08T02:16:27.933Z,4.57
2017-10-08T02:18:55.860Z,4.47
2017-10-08T02:21:23.364Z,5.07
2017-10-08T02:23:51.270Z,4.90
2017-10-08T02:26:18.772Z,3.57
2017-10-08T02:28:46.352Z,5.83
2017-10-08T02:31:13.853Z,4.63
2017-10-08T02:33:41.625Z,7.20
2017-10-08T02:36:09.108Z,3.57
2017-10-08T02:38:36.600Z,4.90
2017-10-08T02:41:04.128Z,4.23
2017-10-08T02:43:32.204Z,4.80
2017-10-08T02:45:59.716Z,3.50
2017-10-08T02:48:27.208Z,3.57
2017-10-08T02:50:54.732Z,4.47
2017-10-08T02:53:22.987Z,4.07
2017-10-08T02:55:50.919Z,3.17
2017-10-08T02:58:19.172Z,5.57
2017-10-08T03:00:46.653Z,3.27
2017-10-08T03:03:14.216Z,2.93
2017-10-08T03:05:41.732Z,4.10
2017-10-08T03:08:09.260Z,4.30
2017-10-08T03:10:37.516Z,2.67
2017-10-08T03:13:05.768Z,3.93
2017-10-08T03:15:33.299Z,2.80
2017-10-08T03:18:00.827Z,3.93
2017-10-08T03:20:29.173Z,3.80
2017-10-08T03:22:57.426Z,3.50
2017-10-08T03:25:25.316Z,3.00
2017-10-08T03:27:53.596Z,4.17
2017-10-08T03:30:22.253Z,4.20
2017-10-08T03:32:49.739Z,3.03
2017-10-08T03:35:17.968Z,3.50
2017-10-08T03:37:45.464Z,3.70
2017-10-08T03:40:12.963Z,4.03
2017-10-08T03:42:40.699Z,3.80
2017-10-08T03:45:08.227Z,3.30
2017-10-08T03:47:36.168Z,3.37
2017-10-08T03:50:03.660Z,4.10
2017-10-08T03:52:31.913Z,3.30
2017-10-08T03:54:59.439Z,5.13
2017-10-08T03:57:26.924Z,3.97
2017-10-08T03:59:54.800Z,4.10
2017-10-08T04:02:22.419Z,3.27
2017-10-08T04:04:49.992Z,3.70
2017-10-08T04:07:17.543Z,3.57
2017-10-08T04:09:45.034Z,4.00
2017-10-08T04:12:12.527Z,5.50
2017-10-08T04:14:40.804Z,4.30
2017-10-08T04:17:09.436Z,4.50
2017-10-08T04:19:37.387Z,6.27
2017-10-08T04:22:04.879Z,4.07
2017-10-08T04:24:33.192Z,3.73
2017-10-08T04:27:01.452Z,5.30
2017-10-08T04:29:28.936Z,3.97
2017-10-08T04:31:57.255Z,5.83
2017-10-08T04:34:24.764Z,4.70
2017-10-08T04:36:52.265Z,2.80
2017-10-08T04:39:20.540Z,5.00
2017-10-08T04:41:48.208Z,3.50
2017-10-08T04:44:15.804Z,3.47
2017-10-08T04:46:43.335Z,7.07
2017-10-08T04:49:10.821Z,4.00
2017-10-08T04:51:39.104Z,3.10
2017-10-08T04:54:06.618Z,3.63
2017-10-08T04:56:34.151Z,3.40
2017-10-08T04:59:01.728Z,3.50
2017-10-08T05:01:29.220Z,3.57
2017-10-08T05:03:57.153Z,4.40
2017-10-08T05:06:24.631Z,4.80
2017-10-08T05:08:52.521Z,3.97
2017-10-08T05:11:20.812Z,3.27
2017-10-08T05:13:49.082Z,5.60
2017-10-08T05:16:16.997Z,3.43
2017-10-08T05:18:44.544Z,5.60
2017-10-08T05:21:12.044Z,3.03
2017-10-08T05:23:39.588Z,5.43
2017-10-08T05:26:07.113Z,4.50
2017-10-08T05:28:34.619Z,3.87
2017-10-08T05:31:02.148Z,3.40
2017-10-08T05:33:29.681Z,4.50
2017-10-08T05:35:57.982Z,3.83
2017-10-08T05:38:25.493Z,3.70
2017-10-08T05:40:53.099Z,3.60
2017-10-08T05:43:20.635Z,4.03
2017-10-08T05:45:48.127Z,4.60
2017-10-08T05:48:15.656Z,3.63
2017-10-08T05:50:43.975Z,4.77
2017-10-08T05:53:11.468Z,4.77
2017-10-08T05:55:39.000Z,3.40
2017-10-08T05:58:07.260Z,4.03
2017-10-08T06:00:34.801Z,5.00
2017-10-08T06:03:02.347Z,4.20
2017-10-08T06:05:29.853Z,3.00
2017-10-08T06:07:57.732Z,3.83
2017-10-08T06:10:25.263Z,4.67
2017-10-08T06:12:53.531Z,3.23
2017-10-08T06:15:21.449Z,3.67
2017-10-08T06:17:50.166Z,5.47
2017-10-08T06:20:18.464Z,4.17
2017-10-08T06:22:46.004Z,5.53
2017-10-08T06:25:13.513Z,3.53
2017-10-08T06:27:41.440Z,4.37
2017-10-08T06:30:09.702Z,3.40
2017-10-08T06:32:37.603Z,5.27
2017-10-08T06:35:05.136Z,4.10
2017-10-08T06:37:32.623Z,4.00
2017-10-08T06:40:00.107Z,3.40
2017-10-08T06:42:28.476Z,3.90
2017-10-08T06:44:55.960Z,3.70
2017-10-08T06:47:24.212Z,4.93
2017-10-08T06:49:51.728Z,4.30
2017-10-08T06:52:19.213Z,4.63
2017-10-08T06:54:46.750Z,4.13
2017-10-08T06:57:14.280Z,4.07
2017-10-08T06:59:42.541Z,3.03
2017-10-08T07:02:10.845Z,3.27
2017-10-08T07:04:38.360Z,5.70
2017-10-08T07:07:06.629Z,5.23
2017-10-08T07:09:34.166Z,3.33
2017-10-08T07:12:02.044Z,3.83
2017-10-08T07:14:29.536Z,4.57
2017-10-08T07:16:57.855Z,4.50
2017-10-08T07:19:25.379Z,4.00
2017-10-08T07:21:52.955Z,4.07
2017-10-08T07:24:20.839Z,3.23
2017-10-08T07:26:48.339Z,4.57
2017-10-08T07:29:15.885Z,3.73
2017-10-08T07:31:43.393Z,3.40
2017-10-08T07:34:10.894Z,4.03
2017-10-08T07:36:39.197Z,3.73
2017-10-08T07:39:06.794Z,3.70
2017-10-08T07:41:34.294Z,4.20
2017-10-08T07:44:01.824Z,3.90
2017-10-08T07:46:29.318Z,3.07
2017-10-08T07:48:56.817Z,4.37
2017-10-08T07:51:24.339Z,3.30
2017-10-08T07:53:52.240Z,3.17
2017-10-08T07:56:19.760Z,2.70
2017-10-08T07:58:47.280Z,3.30
2017-10-08T08:01:14.795Z,2.80
2017-10-08T08:03:42.736Z,4.10
2017-10-08T08:06:10.236Z,2.67
2017-10-08T08:08:37.777Z,3.57
2017-10-08T08:11:06.037Z,3.70
2017-10-08T08:13:33.544Z,2.83
2017-10-08T08:16:01.072Z,2.77
2017-10-08T08:18:29.544Z,2.90
2017-10-08T08:20:57.812Z,3.03
2017-10-08T08:23:25.347Z,2.97
2017-10-08T08:25:52.863Z,2.80
2017-10-08T08:28:21.154Z,3.10
2017-10-08T08:30:48.680Z,3.50
2017-10-08T08:33:16.180Z,3.00
2017-10-08T08:35:43.716Z,3.13
2017-10-08T08:38:11.650Z,3.40
2017-10-08T08:40:39.542Z,2.47
2017-10-08T08:43:07.032Z,2.87
2017-10-08T08:45:34.541Z,3.70
2017-10-08T08:48:02.052Z,2.13
2017-10-08T08:50:29.555Z,3.23
2017-10-08T08:52:57.076Z,3.13
2017-10-08T08:55:25.004Z,3.70
2017-10-08T08:57:53.268Z,3.57
2017-10-08T09:00:21.574Z,3.97
2017-10-08T09:02:49.754Z,4.10
2017-10-08T09:05:17.677Z,3.27
2017-10-08T09:07:45.224Z,4.23
2017-10-08T09:10:12.716Z,3.83
2017-10-08T09:12:40.264Z,4.23
2017-10-08T09:15:07.776Z,3.63
2017-10-08T09:17:35.276Z,3.47
2017-10-08T09:20:02.815Z,3.27
2017-10-08T09:22:30.299Z,3.47
2017-10-08T09:24:58.562Z,3.20
2017-10-08T09:27:26.119Z,4.00
2017-10-08T09:29:54.062Z,3.67
2017-10-08T09:32:21.609Z,3.50
2017-10-08T09:34:50.668Z,4.60
2017-10-08T09:37:18.163Z,3.33
2017-10-08T09:39:45.723Z,3.17
2017-10-08T09:42:13.225Z,4.13
2017-10-08T09:44:40.727Z,2.83
2017-10-08T09:47:09.033Z,3.43
2017-10-08T09:49:36.672Z,4.60
2017-10-08T09:52:04.197Z,2.87
2017-10-08T09:54:32.505Z,2.40
2017-10-08T09:57:00.001Z,4.30
2017-10-08T09:59:27.532Z,3.33
2017-10-08T10:01:55.185Z,4.33
2017-10-08T10:04:22.710Z,3.40
2017-10-08T10:06:50.780Z,4.20
2017-10-08T10:09:19.047Z,3.53
2017-10-08T10:11:46.554Z,4.40
2017-10-08T10:14:14.100Z,3.60
2017-10-08T10:16:42.360Z,4.10
2017-10-08T10:19:09.856Z,3.90
2017-10-08T10:21:37.486Z,4.63
2017-10-08T10:24:04.998Z,4.33
2017-10-08T10:26:32.495Z,4.30
2017-10-08T10:29:00.426Z,3.60
2017-10-08T10:31:27.959Z,3.23
2017-10-08T10:33:55.467Z,3.07
2017-10-08T10:36:23.802Z,3.00
2017-10-08T10:38:51.768Z,3.80
2017-10-08T10:41:20.029Z,4.07
2017-10-08T10:43:47.568Z,3.83
2017-10-08T10:46:15.069Z,3.73
2017-10-08T10:48:43.385Z,3.53
2017-10-08T10:51:11.289Z,4.50
2017-10-08T10:53:38.789Z,5.50
2017-10-08T10:56:06.732Z,4.30
2017-10-08T10:58:35.028Z,3.50
2017-10-08T11:01:02.528Z,4.50
2017-10-08T11:03:30.064Z,5.20
2017-10-08T11:05:57.577Z,3.60
2017-10-08T11:08:25.497Z,3.70
2017-10-08T11:10:53.000Z,3.83
2017-10-08T11:13:20.939Z,3.37
2017-10-08T11:15:48.434Z,3.63
2017-10-08T11:18:15.922Z,3.40
2017-10-08T11:20:43.475Z,4.83
2017-10-08T11:23:11.778Z,4.00
2017-10-08T11:25:40.055Z,2.97
2017-10-08T11:28:07.953Z,2.80
2017-10-08T11:30:35.540Z,4.00
2017-10-08T11:33:03.097Z,2.23
2017-10-08T11:35:32.070Z,2.93
2017-10-08T11:38:00.320Z,2.97
2017-10-08T11:40:28.619Z,2.63
2017-10-08T11:42:56.108Z,2.23
2017-10-08T11:45:23.603Z,2.80
2017-10-08T11:47:51.537Z,4.13
2017-10-08T11:50:20.404Z,4.80
2017-10-08T11:52:47.968Z,3.27
2017-10-08T11:55:15.491Z,2.27
2017-10-08T11:57:43.391Z,3.10
2017-10-08T12:00:11.358Z,2.63
2017-10-08T12:02:38.968Z,2.27
2017-10-08T12:05:07.243Z,2.73
2017-10-08T12:07:35.137Z,4.10
2017-10-08T12:10:02.675Z,1.67
2017-10-08T12:12:30.204Z,2.60
2017-10-08T12:14:57.744Z,2.40
2017-10-08T12:17:25.279Z,1.80
2017-10-08T12:19:52.769Z,2.30
2017-10-08T12:22:20.652Z,2.10
2017-10-08T12:24:48.189Z,6.47
2017-10-08T12:27:16.561Z,2.37
2017-10-08T12:29:44.055Z,2.17
2017-10-08T12:32:11.558Z,2.47
2017-10-08T12:34:39.507Z,2.73
2017-10-08T12:37:07.775Z,2.17
2017-10-08T12:39:36.065Z,2.60
2017-10-08T12:42:04.357Z,3.37
2017-10-08T12:44:32.287Z,2.27
2017-10-08T12:47:00.965Z,3.23
2017-10-08T12:49:28.474Z,2.20
2017-10-08T12:51:55.976Z,4.07
2017-10-08T12:54:23.515Z,2.67
2017-10-08T12:56:51.767Z,3.80
2017-10-08T12:59:19.260Z,1.80
2017-10-08T13:01:46.799Z,3.60
2017-10-08T13:04:15.055Z,2.90
2017-10-08T13:06:42.997Z,3.47
2017-10-08T13:09:11.279Z,6.20
2017-10-08T13:11:39.196Z,2.80
2017-10-08T13:14:06.740Z,4.87
2017-10-08T13:16:35.007Z,5.10
2017-10-08T13:19:02.912Z,2.70
2017-10-08T13:21:30.468Z,3.87
2017-10-08T13:23:57.959Z,3.10
2017-10-08T13:26:26.373Z,6.03
2017-10-08T13:28:53.879Z,4.47
2017-10-08T13:31:21.789Z,3.20
2017-10-08T13:33:49.342Z,2.60
2017-10-08T13:36:16.849Z,4.67
2017-10-08T13:38:45.108Z,4.63
2017-10-08T13:41:12.672Z,19.60
2017-10-08T13:43:40.996Z,26.07
2017-10-08T13:49:01.843Z,12.23
2017-10-08T13:51:29.334Z,2.03
2017-10-08T13:53:56.847Z,2.73
2017-10-08T13:56:24.782Z,3.43
2017-10-08T13:58:52.693Z,4.13
2017-10-08T14:01:20.186Z,3.90
2017-10-08T14:03:47.717Z,2.63
2017-10-08T14:06:15.616Z,3.40
2017-10-08T14:08:43.169Z,4.23
2017-10-08T14:11:10.765Z,2.97
2017-10-08T14:13:38.283Z,3.20
2017-10-08T14:16:06.593Z,2.70
2017-10-08T14:18:34.502Z,3.87
2017-10-08T14:21:02.051Z,2.57
2017-10-08T14:23:29.550Z,2.67
2017-10-08T14:25:57.165Z,2.97
2017-10-08T14:28:24.679Z,2.90
2017-10-08T14:30:52.192Z,4.50
2017-10-08T14:33:20.515Z,3.20
2017-10-08T14:35:48.044Z,3.50
2017-10-08T14:38:15.633Z,3.10
2017-10-08T14:40:43.964Z,3.60
2017-10-08T14:43:12.228Z,3.10
2017-10-08T14:45:39.745Z,3.57
2017-10-08T14:48:07.285Z,2.93
2017-10-08T14:50:35.192Z,3.87
2017-10-08T14:53:02.747Z,3.30
2017-10-08T14:55:30.295Z,3.00
2017-10-08T14:57:58.182Z,3.10
2017-10-08T15:00:26.476Z,3.23
2017-10-08T15:02:54.792Z,4.47
2017-10-08T15:05:22.317Z,3.77
2017-10-08T15:07:49.824Z,3.83
2017-10-08T15:10:17.392Z,3.97
2017-10-08T15:12:44.936Z,4.50
2017-10-08T15:15:13.307Z,3.60
2017-10-08T15:17:41.124Z,3.67
2017-10-08T15:20:08.671Z,4.00
2017-10-08T15:22:36.189Z,3.73
2017-10-08T15:25:04.122Z,3.70
2017-10-08T15:27:31.661Z,3.80
2017-10-08T15:29:59.227Z,3.60
2017-10-08T15:32:27.486Z,3.17
2017-10-08T15:34:54.981Z,5.53
2017-10-08T15:37:22.516Z,4.20
2017-10-08T15:39:50.067Z,4.70
2017-10-08T15:42:17.956Z,4.40
2017-10-08T15:44:46.590Z,4.07
2017-10-08T15:47:14.535Z,5.93
2017-10-08T15:49:42.423Z,6.10
2017-10-08T15:52:10.364Z,3.77
2017-10-08T15:54:39.007Z,5.23
2017-10-08T15:57:06.517Z,5.70
2017-10-08T15:59:34.444Z,4.20
2017-10-08T16:02:02.329Z,4.57
2017-10-08T16:04:30.256Z,4.63
2017-10-08T16:06:57.764Z,4.87
2017-10-08T16:09:26.064Z,4.63
2017-10-08T16:11:53.640Z,3.50
2017-10-08T16:14:21.952Z,6.27
2017-10-08T16:16:49.447Z,5.60
2017-10-08T16:19:16.991Z,4.77
2017-10-08T16:21:44.492Z,6.30
2017-10-08T16:24:11.986Z,6.30
2017-10-08T16:26:39.504Z,9.30
2017-10-08T16:29:07.031Z,7.37
2017-10-08T16:31:35.332Z,9.70
2017-10-08T16:34:02.897Z,6.97
2017-10-08T16:36:30.404Z,14.30
2017-10-08T16:38:58.077Z,7.33
2017-10-08T16:41:26.337Z,4.40
2017-10-08T16:43:53.877Z,4.93
2017-10-08T16:46:22.135Z,5.30
2017-10-08T16:48:50.435Z,7.53
2017-10-08T16:51:17.980Z,6.27
2017-10-08T16:53:45.474Z,6.07
2017-10-08T16:56:13.745Z,5.07
2017-10-08T16:58:41.296Z,5.00
2017-10-08T17:01:08.815Z,5.13
2017-10-08T17:03:36.736Z,5.90
2017-10-08T17:06:04.991Z,4.53
2017-10-08T17:08:32.517Z,5.50
2017-10-08T17:11:00.175Z,5.40
2017-10-08T17:13:28.463Z,4.40
2017-10-08T17:15:56.008Z,4.30
2017-10-08T17:18:23.504Z,5.47
2017-10-08T17:20:51.013Z,6.70
2017-10-08T17:23:18.557Z,4.73
2017-10-08T17:25:46.864Z,4.03
2017-10-08T17:28:14.402Z,3.10
2017-10-08T17:30:43.141Z,4.03
2017-10-08T17:33:10.668Z,3.80
2017-10-08T17:35:38.209Z,4.13
2017-10-08T17:38:05.720Z,4.10
2017-10-08T17:40:33.248Z,6.33
2017-10-08T17:43:00.795Z,4.63
2017-10-08T17:45:28.296Z,3.63
2017-10-08T17:47:56.443Z,4.83
2017-10-08T17:50:23.988Z,6.40
2017-10-08T17:52:51.521Z,5.70
2017-10-08T17:55:19.928Z,3.80
2017-10-08T17:57:48.605Z,5.13
2017-10-08T18:00:16.131Z,5.27
2017-10-08T18:02:44.390Z,4.43
2017-10-08T18:05:11.941Z,4.60
2017-10-08T18:07:39.448Z,4.80
2017-10-08T18:10:06.960Z,5.73
2017-10-08T18:12:34.952Z,5.57
2017-10-08T18:15:02.467Z,5.07
2017-10-08T18:17:29.957Z,5.60
2017-10-08T18:19:58.301Z,5.37
2017-10-08T18:22:26.211Z,4.20
2017-10-08T18:24:54.541Z,4.90
2017-10-08T18:27:22.049Z,5.67
2017-10-08T18:29:50.001Z,4.80
2017-10-08T18:32:17.522Z,4.57
2017-10-08T18:34:45.017Z,4.73
2017-10-08T18:37:12.592Z,5.50
2017-10-08T18:39:40.650Z,5.63
2017-10-08T18:42:08.190Z,5.20
2017-10-08T18:44:35.736Z,4.60
2017-10-08T18:47:03.398Z,7.10
2017-10-08T18:49:31.148Z,6.03
2017-10-08T18:51:58.739Z,5.30
2017-10-08T18:54:26.472Z,6.80
2017-10-08T18:56:54.496Z,5.30
2017-10-08T18:59:22.740Z,5.20
2017-10-08T19:01:50.823Z,5.70
2017-10-08T19:04:18.649Z,5.57
2017-10-08T19:06:47.190Z,5.83
2017-10-08T19:09:15.756Z,5.37
2017-10-08T19:11:44.393Z,5.27
2017-10-08T19:14:12.630Z,4.70
2017-10-08T19:16:40.474Z,4.97
2017-10-08T19:19:08.722Z,5.20
2017-10-08T19:21:36.931Z,4.23
2017-10-08T19:24:05.495Z,5.80
2017-10-08T19:26:33.345Z,5.60
2017-10-08T19:29:01.114Z,6.60
2017-10-08T19:31:29.728Z,5.70
2017-10-08T19:33:58.231Z,6.33
2017-10-08T19:36:26.096Z,6.37
2017-10-08T19:38:53.710Z,9.20
2017-10-08T19:41:21.690Z,8.27
2017-10-08T19:43:49.901Z,7.47
2017-10-08T19:46:17.528Z,7.67
2017-10-08T19:48:45.361Z,7.97
2017-10-08T19:51:14.037Z,7.57
2017-10-08T19:53:41.640Z,7.70
2017-10-08T19:56:09.393Z,6.93
2017-10-08T19:58:37.665Z,7.17
2017-10-08T20:01:05.309Z,7.10
2017-10-08T20:03:32.791Z,7.10
2017-10-08T20:06:00.377Z,7.50
2017-10-08T20:08:28.950Z,7.43
2017-10-08T20:10:57.379Z,6.13
2017-10-08T20:13:25.401Z,6.77
2017-10-08T20:15:53.699Z,6.67
2017-10-08T20:18:21.235Z,7.53
2017-10-08T20:20:49.548Z,6.70
2017-10-08T20:23:17.849Z,7.33
2017-10-08T20:25:46.245Z,8.37
2017-10-08T20:28:13.792Z,7.57
2017-10-08T20:30:41.297Z,9.73
2017-10-08T20:33:09.240Z,9.50
2017-10-08T20:35:36.774Z,7.23
2017-10-08T20:38:04.311Z,8.00
2017-10-08T20:40:31.865Z,8.30
2017-10-08T20:43:00.144Z,8.60
2017-10-08T20:45:27.649Z,7.90
2017-10-08T20:47:55.623Z,8.20
2017-10-08T20:50:23.124Z,9.20
2017-10-08T20:52:50.625Z,7.73
2017-10-08T20:55:18.148Z,9.43
2017-10-08T20:57:45.681Z,7.60
2017-10-08T21:00:14.540Z,8.07
2017-10-08T21:02:42.040Z,8.53
2017-10-08T21:05:10.377Z,9.27
2017-10-08T21:07:37.873Z,11.13
2017-10-08T21:10:05.395Z,9.43
2017-10-08T21:12:32.888Z,8.10
2017-10-08T21:15:00.806Z,9.80
2017-10-08T21:17:28.332Z,7.80
2017-10-08T21:19:56.718Z,7.97
2017-10-08T21:22:24.985Z,8.37
2017-10-08T21:24:53.283Z,9.30
2017-10-08T21:27:20.828Z,11.23
2017-10-08T21:29:48.363Z,8.10
2017-10-08T21:32:15.859Z,8.03
2017-10-08T21:34:43.414Z,10.10
2017-10-08T21:37:10.983Z,10.53
2017-10-08T21:39:38.492Z,8.70
2017-10-08T21:42:06.020Z,8.10
2017-10-08T21:44:33.518Z,9.47
2017-10-08T21:47:01.031Z,10.90
2017-10-08T21:49:28.573Z,9.00
2017-10-08T21:51:56.475Z,8.50
2017-10-08T21:54:23.988Z,10.10
2017-10-08T21:56:51.944Z,9.83
2017-10-08T21:59:20.217Z,9.60
2017-10-08T22:01:47.752Z,9.90
2017-10-08T22:04:15.279Z,8.57
2017-10-08T22:06:42.785Z,10.30
2017-10-08T22:09:10.712Z,9.57
2017-10-08T22:11:38.257Z,9.27
2017-10-08T22:14:05.760Z,8.67
2017-10-08T22:16:33.312Z,7.77
2017-10-08T22:19:00.820Z,7.67
2017-10-08T22:21:28.340Z,6.27
2017-10-08T22:23:55.840Z,6.53
2017-10-08T22:26:23.453Z,6.97
2017-10-08T22:28:51.760Z,7.07
2017-10-08T22:31:19.264Z,8.03
2017-10-08T22:33:46.809Z,7.23
2017-10-08T22:36:14.709Z,6.70
2017-10-08T22:38:42.255Z,7.03
2017-10-08T22:41:10.533Z,8.97
2017-10-08T22:43:38.040Z,8.33
2017-10-08T22:46:06.341Z,6.47
2017-10-08T22:48:34.235Z,7.43
2017-10-08T22:51:01.734Z,7.60
2017-10-08T22:53:31.149Z,7.37
2017-10-08T22:55:59.099Z,8.30
2017-10-08T22:58:27.368Z,6.27
2017-10-08T23:00:54.905Z,7.60
2017-10-08T23:03:22.408Z,9.37
2017-10-08T23:05:50.674Z,6.70
2017-10-08T23:08:18.215Z,8.50
2017-10-08T23:10:45.700Z,8.10
2017-10-08T23:13:13.189Z,7.50
2017-10-08T23:15:40.815Z,5.67
2017-10-08T23:18:09.072Z,8.60
2017-10-08T23:20:36.620Z,6.17
2017-10-08T23:23:04.114Z,9.20
2017-10-08T23:25:32.396Z,7.27
2017-10-08T23:27:59.903Z,7.87
2017-10-08T23:30:27.637Z,7.40
2017-10-08T23:32:55.157Z,8.73
2017-10-08T23:35:23.459Z,7.33
2017-10-08T23:37:51.420Z,7.77
2017-10-08T23:40:19.347Z,9.43
2017-10-08T23:42:46.852Z,8.90
2017-10-08T23:45:14.372Z,6.73
2017-10-08T23:47:41.880Z,7.17
2017-10-08T23:50:09.400Z,8.03
2017-10-08T23:52:37.674Z,6.80
2017-10-08T23:55:05.984Z,9.00
2017-10-08T23:57:33.488Z,7.80
